createdAt,value
2023-07-11T00:00:57.277Z,6.00
2023-07-11T00:06:28.391Z,6.78
2023-07-11T00:11:22.590Z,5.05
2023-07-11T00:16:17.509Z,9.30
2023-07-11T00:21:11.654Z,6.72
2023-07-11T00:26:05.956Z,5.07
2023-07-11T00:31:00.815Z,4.80
2023-07-11T00:35:55.749Z,5.05
2023-07-11T00:40:50.881Z,7.68
2023-07-11T00:46:16.607Z,13.52
2023-07-11T00:51:14.076Z,5.85
2023-07-11T00:56:10.112Z,6.85
2023-07-11T01:01:04.630Z,4.63
2023-07-11T01:06:00.530Z,4.18
2023-07-11T01:10:53.676Z,7.47
2023-07-11T01:15:47.508Z,4.53
2023-07-11T01:20:41.094Z,5.90
2023-07-11T01:25:34.489Z,3.95
2023-07-11T01:30:28.078Z,4.35
2023-07-11T01:35:21.516Z,5.07
2023-07-11T01:40:15.182Z,8.82
2023-07-11T01:45:12.468Z,6.18
2023-07-11T01:50:08.071Z,5.60
2023-07-11T01:55:02.791Z,2.88
2023-07-11T01:59:59.026Z,5.65
2023-07-11T02:04:52.851Z,5.13
2023-07-11T02:09:46.524Z,6.43
2023-07-11T02:14:42.256Z,3.50
2023-07-11T02:19:36.260Z,5.13
2023-07-11T02:24:29.547Z,5.13
2023-07-11T02:29:23.509Z,5.15
2023-07-11T02:34:17.212Z,4.85
2023-07-11T02:39:10.931Z,3.28
2023-07-11T02:44:04.678Z,3.65
2023-07-11T02:48:57.986Z,4.60
2023-07-11T02:53:53.320Z,3.58
2023-07-11T02:58:47.698Z,5.53
2023-07-11T03:03:42.022Z,3.50
2023-07-11T03:08:36.433Z,4.82
2023-07-11T03:13:29.830Z,3.70
2023-07-11T03:18:23.471Z,4.00
2023-07-11T03:23:20.883Z,6.93
2023-07-11T03:28:14.446Z,4.85
2023-07-11T03:33:08.749Z,3.28
2023-07-11T03:38:01.993Z,3.05
2023-07-11T03:42:56.611Z,5.57
2023-07-11T03:47:50.979Z,5.38
2023-07-11T03:52:44.727Z,2.17
2023-07-11T03:57:38.513Z,4.50
2023-07-11T04:02:32.507Z,7.32
2023-07-11T04:07:25.736Z,6.13
2023-07-11T04:12:19.133Z,3.97
2023-07-11T04:17:13.190Z,3.45
2023-07-11T04:22:08.724Z,4.82
2023-07-11T04:27:02.455Z,3.33
2023-07-11T04:31:56.513Z,3.60
2023-07-11T04:36:50.999Z,3.08
2023-07-11T04:41:44.975Z,3.40
2023-07-11T04:46:38.478Z,6.05
2023-07-11T04:51:33.971Z,3.03
2023-07-11T04:56:28.714Z,3.17
2023-07-11T05:01:22.963Z,6.90
2023-07-11T05:06:17.129Z,2.95
2023-07-11T05:11:30.414Z,4.20
2023-07-11T05:16:28.938Z,3.38
2023-07-11T05:21:23.086Z,10.40
2023-07-11T05:26:18.733Z,8.82
2023-07-11T05:31:12.991Z,12.60
2023-07-11T05:36:33.441Z,11.80
2023-07-11T05:41:26.875Z,18.25
2023-07-11T05:46:21.163Z,22.65
2023-07-11T05:51:17.052Z,15.80
2023-07-11T05:56:11.337Z,18.67
2023-07-11T06:01:05.138Z,13.60
2023-07-11T06:06:06.926Z,17.40
2023-07-11T06:11:02.233Z,24.50
2023-07-11T06:16:19.227Z,19.90
2023-07-11T06:21:13.459Z,10.98
2023-07-11T06:26:07.759Z,18.60
2023-07-11T06:31:03.160Z,16.08
2023-07-11T06:35:58.005Z,14.88
2023-07-11T06:40:54.093Z,17.13
2023-07-11T06:45:50.994Z,12.73
2023-07-11T06:50:48.573Z,15.52
2023-07-11T06:55:49.036Z,17.15
2023-07-11T07:00:42.626Z,18.20
2023-07-11T07:05:36.605Z,16.52
2023-07-11T07:10:30.861Z,18.77
2023-07-11T07:15:25.101Z,11.90
2023-07-11T07:20:19.448Z,13.82
2023-07-11T07:25:24.269Z,11.75
2023-07-11T07:30:19.865Z,16.23
2023-07-11T07:35:13.805Z,18.80
2023-07-11T07:40:09.202Z,16.52
2023-07-11T07:45:04.234Z,15.73
2023-07-11T07:49:59.275Z,11.93
2023-07-11T07:54:54.040Z,13.55
2023-07-11T07:59:48.273Z,14.13
2023-07-11T08:04:59.255Z,15.68
2023-07-11T08:09:54.522Z,15.90
2023-07-11T08:14:47.742Z,17.25
2023-07-11T08:19:40.984Z,11.70
2023-07-11T08:24:35.445Z,14.52
2023-07-11T08:29:30.115Z,15.57
2023-07-11T08:34:25.222Z,14.00
2023-07-11T08:39:18.213Z,15.35
2023-07-11T08:44:50.219Z,14.82
2023-07-11T08:50:10.839Z,17.45
2023-07-11T09:00:00.567Z,13.05
2023-07-11T09:05:14.281Z,12.82
2023-07-11T09:10:23.501Z,14.65
2023-07-11T09:15:30.226Z,16.10
2023-07-11T09:20:41.394Z,12.93
2023-07-11T09:25:40.409Z,15.23
2023-07-11T09:30:47.288Z,22.98
2023-07-11T09:35:42.023Z,17.42
2023-07-11T09:40:40.441Z,17.67
2023-07-11T09:45:39.447Z,12.75
2023-07-11T09:51:14.215Z,18.50
2023-07-11T09:56:13.729Z,16.70
2023-07-11T10:01:09.306Z,13.38
2023-07-11T10:06:06.285Z,17.42
2023-07-11T10:11:06.512Z,15.30
2023-07-11T10:16:01.004Z,15.20
2023-07-11T10:21:41.063Z,15.63
2023-07-11T10:26:40.024Z,15.25
2023-07-11T10:31:40.525Z,14.23
2023-07-11T10:36:47.908Z,18.20
2023-07-11T10:41:59.681Z,12.85
2023-07-11T10:46:54.874Z,14.43
2023-07-11T10:51:58.757Z,12.95
2023-07-11T10:56:59.084Z,14.32
2023-07-11T11:01:51.942Z,11.80
2023-07-11T11:07:20.830Z,16.52
2023-07-11T11:12:33.246Z,14.32
2023-07-11T11:17:40.689Z,15.90
2023-07-11T11:22:46.556Z,14.63
2023-07-11T11:28:11.175Z,12.18
2023-07-11T11:33:58.613Z,24.33
2023-07-11T11:39:13.559Z,14.90
2023-07-11T11:54:50.808Z,14.73
2023-07-11T11:59:47.499Z,13.48
2023-07-11T12:05:00.914Z,13.68
2023-07-11T12:09:54.127Z,12.07
2023-07-11T12:14:53.241Z,14.98
2023-07-11T12:20:00.043Z,19.83
2023-07-11T12:25:02.265Z,14.45
2023-07-11T12:29:56.248Z,10.30
2023-07-11T12:34:57.992Z,10.52
2023-07-11T12:40:10.282Z,10.13
2023-07-11T12:45:04.540Z,10.13
2023-07-11T12:49:58.630Z,8.73
2023-07-11T12:54:52.556Z,9.30
2023-07-11T12:59:46.344Z,8.05
2023-07-11T13:04:46.295Z,7.32
2023-07-11T13:09:52.642Z,6.78
2023-07-11T13:14:50.632Z,9.68
2023-07-11T13:19:45.601Z,5.28
2023-07-11T13:24:39.196Z,8.65
2023-07-11T13:29:40.523Z,10.98
2023-07-11T13:34:36.315Z,10.27
2023-07-11T13:39:51.107Z,7.55
2023-07-11T13:44:52.582Z,7.75
2023-07-11T13:49:48.890Z,8.13
2023-07-11T13:54:52.599Z,6.25
2023-07-11T13:59:53.534Z,8.63
2023-07-11T14:04:56.212Z,7.53
2023-07-11T14:09:50.293Z,9.93
2023-07-11T14:14:45.382Z,5.25
2023-07-11T14:19:39.689Z,6.10
2023-07-11T14:24:33.926Z,7.20
2023-07-11T14:29:29.707Z,7.95
2023-07-11T14:34:25.754Z,5.47
2023-07-11T14:39:20.406Z,4.97
2023-07-11T14:44:27.904Z,4.30
2023-07-11T14:49:22.172Z,7.10
2023-07-11T14:54:23.744Z,5.45
2023-07-11T14:59:30.582Z,4.68
2023-07-11T15:19:48.497Z,5.18
2023-07-11T15:24:45.813Z,6.55
2023-07-11T15:29:39.986Z,4.85
2023-07-11T15:34:34.289Z,6.80
2023-07-11T15:39:27.733Z,5.55
2023-07-11T15:44:45.390Z,5.85
2023-07-11T15:49:43.988Z,4.05
2023-07-11T15:54:38.007Z,5.07
2023-07-11T15:59:31.517Z,6.68
2023-07-11T16:04:35.793Z,6.65
2023-07-11T16:09:30.954Z,4.07
2023-07-11T16:14:28.183Z,6.53
2023-07-11T16:19:28.665Z,4.65
2023-07-11T16:24:24.333Z,5.78
2023-07-11T16:29:38.411Z,4.57
2023-07-11T16:34:33.272Z,4.78
2023-07-11T16:39:43.952Z,4.25
2023-07-11T16:44:38.741Z,3.75
2023-07-11T16:49:33.173Z,4.97
2023-07-11T16:54:27.656Z,4.93
2023-07-11T16:59:25.765Z,5.85
2023-07-11T17:04:21.820Z,4.30
2023-07-11T17:09:26.822Z,3.45
2023-07-11T17:14:21.421Z,4.15
2023-07-11T17:19:30.853Z,4.20
2023-07-11T17:24:27.855Z,3.85
2023-07-11T17:29:21.144Z,4.38
2023-07-11T17:34:19.673Z,3.78
2023-07-11T17:39:19.789Z,6.60
2023-07-11T17:54:07.899Z,6.78
2023-07-11T17:59:01.461Z,5.25
2023-07-11T18:03:54.959Z,4.57
2023-07-11T18:08:49.301Z,3.78
2023-07-11T18:13:45.038Z,9.05
2023-07-11T18:18:38.855Z,5.63
2023-07-11T18:23:36.066Z,5.13
2023-07-11T18:28:29.164Z,12.27
2023-07-11T18:33:22.782Z,6.05
2023-07-11T18:38:38.007Z,7.63
2023-07-11T18:43:31.810Z,16.60
2023-07-11T18:48:27.110Z,9.93
2023-07-11T18:53:21.156Z,14.88
2023-07-11T18:58:18.278Z,16.33
2023-07-11T19:03:13.340Z,19.27
2023-07-11T19:08:22.720Z,23.13
2023-07-11T19:13:16.334Z,23.70
2023-07-11T19:18:18.936Z,16.50
2023-07-11T19:23:26.789Z,27.75
2023-07-11T19:28:24.090Z,15.40
2023-07-11T19:33:18.185Z,18.27
2023-07-11T19:38:17.534Z,20.33
2023-07-11T19:43:13.545Z,22.85
2023-07-11T19:48:15.944Z,25.98
2023-07-11T19:53:15.086Z,23.45
2023-07-11T19:58:17.675Z,19.27
2023-07-11T20:03:13.617Z,24.42
2023-07-11T20:08:16.617Z,20.90
2023-07-11T20:13:15.304Z,18.35
2023-07-11T20:18:37.819Z,16.58
2023-07-11T20:23:31.782Z,25.88
2023-07-11T20:28:29.570Z,18.33
2023-07-11T20:33:23.715Z,24.73
2023-07-11T20:38:28.392Z,23.98
2023-07-11T20:43:21.177Z,30.52
2023-07-11T20:48:23.770Z,28.00
2023-07-11T20:53:17.815Z,31.80
2023-07-11T20:58:14.134Z,23.33
2023-07-11T21:03:08.604Z,27.25
2023-07-11T21:08:02.499Z,31.08
2023-07-11T21:12:57.073Z,30.90
2023-07-11T21:17:50.833Z,26.67
2023-07-11T21:22:50.680Z,30.42
2023-07-11T21:32:37.604Z,37.55
2023-07-11T21:37:31.475Z,33.63
2023-07-11T21:42:25.628Z,35.22
2023-07-11T21:47:19.810Z,37.60
2023-07-11T21:52:14.442Z,34.17
2023-07-11T21:57:16.485Z,33.00
2023-07-11T22:02:09.829Z,30.10
2023-07-11T22:07:04.764Z,29.80
2023-07-11T22:11:58.810Z,31.65
2023-07-11T22:17:06.576Z,31.30
2023-07-11T22:22:06.468Z,36.85
2023-07-11T22:27:00.900Z,35.53
2023-07-11T22:31:55.466Z,35.70
2023-07-11T22:36:49.280Z,32.53
2023-07-11T22:41:43.329Z,35.58
2023-07-11T22:46:36.977Z,33.08
2023-07-11T22:51:30.407Z,33.45
2023-07-11T22:56:26.312Z,31.38
2023-07-11T23:01:21.397Z,30.58
2023-07-11T23:06:24.620Z,33.63
2023-07-11T23:11:18.105Z,22.75
2023-07-11T23:16:20.866Z,22.50
2023-07-11T23:21:14.647Z,27.25
2023-07-11T23:26:14.783Z,32.17
2023-07-11T23:31:08.682Z,29.58
2023-07-11T23:36:12.452Z,29.58
2023-07-11T23:41:06.894Z,41.58
2023-07-11T23:46:02.008Z,31.08
2023-07-11T23:51:00.096Z,25.38
2023-07-11T23:55:57.093Z,29.58
